sensor_id;sensor_type;location;lat;lon;timestamp;temperature;humidity
21037;DHT22;10677;50.942;4.028;2024-02-16T00:00:44;14.60;99.90
21037;DHT22;10677;50.942;4.028;2024-02-16T00:03:12;14.50;99.90
21037;DHT22;10677;50.942;4.028;2024-02-16T00:05:37;14.60;99.90
21037;DHT22;10677;50.942;4.028;2024-02-16T00:08:03;14.60;99.90
21037;DHT22;10677;50.942;4.028;2024-02-16T00:10:29;14.50;99.90
21037;DHT22;10677;50.942;4.028;2024-02-16T00:12:56;14.50;99.90
21037;DHT22;10677;50.942;4.028;2024-02-16T00:15:22;14.40;99.90
21037;DHT22;10677;50.942;4.028;2024-02-16T00:17:47;14.40;99.90
21037;DHT22;10677;50.942;4.028;2024-02-16T00:20:13;14.50;99.90
21037;DHT22;10677;50.942;4.028;2024-02-16T00:22:40;14.50;99.90
21037;DHT22;10677;50.942;4.028;2024-02-16T00:25:06;14.50;99.90
21037;DHT22;10677;50.942;4.028;2024-02-16T00:27:32;14.40;99.90
21037;DHT22;10677;50.942;4.028;2024-02-16T00:29:57;14.40;99.90
21037;DHT22;10677;50.942;4.028;2024-02-16T00:32:23;14.50;99.90
21037;DHT22;10677;50.942;4.028;2024-02-16T00:34:51;14.40;99.90
21037;DHT22;10677;50.942;4.028;2024-02-16T00:37:20;14.40;99.90
21037;DHT22;10677;50.942;4.028;2024-02-16T00:39:45;14.30;99.90
21037;DHT22;10677;50.942;4.028;2024-02-16T00:42:11;14.30;99.90
21037;DHT22;10677;50.942;4.028;2024-02-16T00:44:36;14.30;99.90
21037;DHT22;10677;50.942;4.028;2024-02-16T00:47:02;14.30;99.90
21037;DHT22;10677;50.942;4.028;2024-02-16T00:49:31;14.20;99.90
21037;DHT22;10677;50.942;4.028;2024-02-16T00:51:57;14.30;99.90
21037;DHT22;10677;50.942;4.028;2024-02-16T00:54:23;14.30;99.90
21037;DHT22;10677;50.942;4.028;2024-02-16T00:56:48;14.30;99.90
21037;DHT22;10677;50.942;4.028;2024-02-16T00:59:14;14.30;99.90
21037;DHT22;10677;50.942;4.028;2024-02-16T01:01:39;14.30;99.90
21037;DHT22;10677;50.942;4.028;2024-02-16T01:04:05;14.30;99.90
21037;DHT22;10677;50.942;4.028;2024-02-16T01:06:32;14.30;99.90
21037;DHT22;10677;50.942;4.028;2024-02-16T01:08:58;14.30;99.90
21037;DHT22;10677;50.942;4.028;2024-02-16T01:11:24;14.30;99.90
21037;DHT22;10677;50.942;4.028;2024-02-16T01:13:49;14.30;99.90
21037;DHT22;10677;50.942;4.028;2024-02-16T01:16:18;14.30;99.90
21037;DHT22;10677;50.942;4.028;2024-02-16T01:18:44;14.30;99.90
21037;DHT22;10677;50.942;4.028;2024-02-16T01:21:10;14.30;99.90
21037;DHT22;10677;50.942;4.028;2024-02-16T01:23:36;14.30;99.90
21037;DHT22;10677;50.942;4.028;2024-02-16T01:26:02;14.20;99.90
21037;DHT22;10677;50.942;4.028;2024-02-16T01:28:27;14.20;99.90
21037;DHT22;10677;50.942;4.028;2024-02-16T01:30:53;14.20;99.90
21037;DHT22;10677;50.942;4.028;2024-02-16T01:33:21;14.20;99.90
21037;DHT22;10677;50.942;4.028;2024-02-16T01:35:47;14.30;99.90
21037;DHT22;10677;50.942;4.028;2024-02-16T01:38:13;14.30;99.90
21037;DHT22;10677;50.942;4.028;2024-02-16T01:40:39;14.30;99.90
21037;DHT22;10677;50.942;4.028;2024-02-16T01:43:05;14.30;99.90
21037;DHT22;10677;50.942;4.028;2024-02-16T01:45:30;14.20;99.90
21037;DHT22;10677;50.942;4.028;2024-02-16T01:47:56;14.20;99.90
21037;DHT22;10677;50.942;4.028;2024-02-16T01:50:23;14.30;99.90
21037;DHT22;10677;50.942;4.028;2024-02-16T01:52:50;14.20;99.90
21037;DHT22;10677;50.942;4.028;2024-02-16T01:55:16;14.20;99.90
21037;DHT22;10677;50.942;4.028;2024-02-16T01:57:47;14.30;99.90
21037;DHT22;10677;50.942;4.028;2024-02-16T02:00:14;14.20;99.90
21037;DHT22;10677;50.942;4.028;2024-02-16T02:02:41;14.30;99.90
21037;DHT22;10677;50.942;4.028;2024-02-16T02:05:09;14.30;99.90
21037;DHT22;10677;50.942;4.028;2024-02-16T02:07:35;14.20;99.90
21037;DHT22;10677;50.942;4.028;2024-02-16T02:10:00;14.20;99.90
21037;DHT22;10677;50.942;4.028;2024-02-16T02:12:26;14.20;99.90
21037;DHT22;10677;50.942;4.028;2024-02-16T02:14:52;14.20;99.90
21037;DHT22;10677;50.942;4.028;2024-02-16T02:17:18;14.20;99.90
21037;DHT22;10677;50.942;4.028;2024-02-16T02:19:47;14.20;99.90
21037;DHT22;10677;50.942;4.028;2024-02-16T02:22:19;14.20;99.90
21037;DHT22;10677;50.942;4.028;2024-02-16T02:24:46;14.20;99.90
21037;DHT22;10677;50.942;4.028;2024-02-16T02:27:12;14.20;99.90
21037;DHT22;10677;50.942;4.028;2024-02-16T02:29:39;14.20;99.90
21037;DHT22;10677;50.942;4.028;2024-02-16T02:32:06;14.20;99.90
21037;DHT22;10677;50.942;4.028;2024-02-16T02:34:32;14.20;99.90
21037;DHT22;10677;50.942;4.028;2024-02-16T02:36:57;14.10;99.90
21037;DHT22;10677;50.942;4.028;2024-02-16T02:39:23;14.10;99.90
21037;DHT22;10677;50.942;4.028;2024-02-16T02:41:49;14.10;99.90
21037;DHT22;10677;50.942;4.028;2024-02-16T02:44:14;14.10;99.90
21037;DHT22;10677;50.942;4.028;2024-02-16T02:46:40;14.10;99.90
21037;DHT22;10677;50.942;4.028;2024-02-16T02:49:06;14.10;99.90
21037;DHT22;10677;50.942;4.028;2024-02-16T02:51:32;14.20;99.90
21037;DHT22;10677;50.942;4.028;2024-02-16T02:54:00;14.20;99.90
21037;DHT22;10677;50.942;4.028;2024-02-16T02:56:26;14.20;99.90
21037;DHT22;10677;50.942;4.028;2024-02-16T02:58:52;14.20;99.90
21037;DHT22;10677;50.942;4.028;2024-02-16T03:01:18;14.20;99.90
21037;DHT22;10677;50.942;4.028;2024-02-16T03:03:45;14.20;99.90
21037;DHT22;10677;50.942;4.028;2024-02-16T03:06:12;14.20;99.90
21037;DHT22;10677;50.942;4.028;2024-02-16T03:08:38;14.20;99.90
21037;DHT22;10677;50.942;4.028;2024-02-16T03:11:04;14.20;99.90
21037;DHT22;10677;50.942;4.028;2024-02-16T03:13:31;14.30;99.90
21037;DHT22;10677;50.942;4.028;2024-02-16T03:15:57;14.30;99.90
21037;DHT22;10677;50.942;4.028;2024-02-16T03:18:23;14.30;99.90
21037;DHT22;10677;50.942;4.028;2024-02-16T03:20:49;14.40;99.90
21037;DHT22;10677;50.942;4.028;2024-02-16T03:23:15;14.40;99.90
21037;DHT22;10677;50.942;4.028;2024-02-16T03:25:41;14.40;99.90
21037;DHT22;10677;50.942;4.028;2024-02-16T03:28:12;14.40;99.90
21037;DHT22;10677;50.942;4.028;2024-02-16T03:30:38;14.40;99.90
21037;DHT22;10677;50.942;4.028;2024-02-16T03:33:04;14.50;99.90
21037;DHT22;10677;50.942;4.028;2024-02-16T03:35:29;14.40;99.90
21037;DHT22;10677;50.942;4.028;2024-02-16T03:37:55;14.40;99.90
21037;DHT22;10677;50.942;4.028;2024-02-16T03:40:23;14.50;99.90
21037;DHT22;10677;50.942;4.028;2024-02-16T03:42:52;14.60;99.90
21037;DHT22;10677;50.942;4.028;2024-02-16T03:45:18;14.60;99.90
21037;DHT22;10677;50.942;4.028;2024-02-16T03:47:44;14.50;99.90
21037;DHT22;10677;50.942;4.028;2024-02-16T03:50:10;14.50;99.90
21037;DHT22;10677;50.942;4.028;2024-02-16T03:52:36;14.50;99.90
21037;DHT22;10677;50.942;4.028;2024-02-16T03:55:03;14.50;99.90
21037;DHT22;10677;50.942;4.028;2024-02-16T03:57:30;14.60;99.90
21037;DHT22;10677;50.942;4.028;2024-02-16T03:59:56;14.60;99.90
21037;DHT22;10677;50.942;4.028;2024-02-16T04:02:22;14.70;99.90
21037;DHT22;10677;50.942;4.028;2024-02-16T04:04:48;14.60;99.90
21037;DHT22;10677;50.942;4.028;2024-02-16T04:07:14;14.60;99.90
21037;DHT22;10677;50.942;4.028;2024-02-16T04:09:39;14.70;99.90
21037;DHT22;10677;50.942;4.028;2024-02-16T04:12:05;14.70;99.90
21037;DHT22;10677;50.942;4.028;2024-02-16T04:14:31;14.70;99.90
21037;DHT22;10677;50.942;4.028;2024-02-16T04:16:59;14.70;99.90
21037;DHT22;10677;50.942;4.028;2024-02-16T04:19:28;14.60;99.90
21037;DHT22;10677;50.942;4.028;2024-02-16T04:21:54;14.60;99.90
21037;DHT22;10677;50.942;4.028;2024-02-16T04:24:20;14.60;99.90
21037;DHT22;10677;50.942;4.028;2024-02-16T04:26:45;14.60;99.90
21037;DHT22;10677;50.942;4.028;2024-02-16T04:29:11;14.50;99.90
21037;DHT22;10677;50.942;4.028;2024-02-16T04:31:40;14.50;99.90
21037;DHT22;10677;50.942;4.028;2024-02-16T04:34:10;14.50;99.90
21037;DHT22;10677;50.942;4.028;2024-02-16T04:36:36;14.50;99.90
21037;DHT22;10677;50.942;4.028;2024-02-16T04:39:01;14.60;99.90
21037;DHT22;10677;50.942;4.028;2024-02-16T04:41:27;14.60;99.90
21037;DHT22;10677;50.942;4.028;2024-02-16T04:43:53;14.60;99.90
21037;DHT22;10677;50.942;4.028;2024-02-16T04:46:19;14.60;99.90
21037;DHT22;10677;50.942;4.028;2024-02-16T04:48:44;14.50;99.90
21037;DHT22;10677;50.942;4.028;2024-02-16T04:51:11;14.40;99.90
21037;DHT22;10677;50.942;4.028;2024-02-16T04:53:37;14.40;99.90
21037;DHT22;10677;50.942;4.028;2024-02-16T04:56:03;14.40;99.90
21037;DHT22;10677;50.942;4.028;2024-02-16T04:58:28;14.40;99.90
21037;DHT22;10677;50.942;4.028;2024-02-16T05:00:54;14.40;99.90
21037;DHT22;10677;50.942;4.028;2024-02-16T05:03:19;14.30;99.90
21037;DHT22;10677;50.942;4.028;2024-02-16T05:05:45;14.40;99.90
21037;DHT22;10677;50.942;4.028;2024-02-16T05:08:11;14.30;99.90
21037;DHT22;10677;50.942;4.028;2024-02-16T05:10:37;14.30;99.90
21037;DHT22;10677;50.942;4.028;2024-02-16T05:13:04;14.40;99.90
21037;DHT22;10677;50.942;4.028;2024-02-16T05:15:30;14.40;99.90
21037;DHT22;10677;50.942;4.028;2024-02-16T05:17:56;14.40;99.90
21037;DHT22;10677;50.942;4.028;2024-02-16T05:20:23;14.30;99.90
21037;DHT22;10677;50.942;4.028;2024-02-16T05:22:49;14.30;99.90
21037;DHT22;10677;50.942;4.028;2024-02-16T05:25:18;14.30;99.90
21037;DHT22;10677;50.942;4.028;2024-02-16T05:27:44;14.20;99.90
21037;DHT22;10677;50.942;4.028;2024-02-16T05:30:11;14.20;99.90
21037;DHT22;10677;50.942;4.028;2024-02-16T05:32:38;14.20;99.90
21037;DHT22;10677;50.942;4.028;2024-02-16T05:35:05;14.20;99.90
21037;DHT22;10677;50.942;4.028;2024-02-16T05:37:47;14.20;99.90
21037;DHT22;10677;50.942;4.028;2024-02-16T05:40:15;14.20;99.90
21037;DHT22;10677;50.942;4.028;2024-02-16T05:42:53;14.20;99.90
21037;DHT22;10677;50.942;4.028;2024-02-16T05:45:19;14.20;99.90
21037;DHT22;10677;50.942;4.028;2024-02-16T05:47:46;14.20;99.90
21037;DHT22;10677;50.942;4.028;2024-02-16T05:50:13;14.20;99.90
21037;DHT22;10677;50.942;4.028;2024-02-16T05:52:39;14.20;99.90
21037;DHT22;10677;50.942;4.028;2024-02-16T05:55:07;14.20;99.90
21037;DHT22;10677;50.942;4.028;2024-02-16T05:57:33;14.30;99.90
21037;DHT22;10677;50.942;4.028;2024-02-16T05:59:59;14.30;99.90
21037;DHT22;10677;50.942;4.028;2024-02-16T06:02:24;14.40;99.90
21037;DHT22;10677;50.942;4.028;2024-02-16T06:04:52;14.40;99.90
21037;DHT22;10677;50.942;4.028;2024-02-16T06:07:18;14.40;99.90
21037;DHT22;10677;50.942;4.028;2024-02-16T06:09:43;14.40;99.90
21037;DHT22;10677;50.942;4.028;2024-02-16T06:12:09;14.50;99.90
21037;DHT22;10677;50.942;4.028;2024-02-16T06:14:35;14.40;99.90
21037;DHT22;10677;50.942;4.028;2024-02-16T06:17:02;14.50;99.90
21037;DHT22;10677;50.942;4.028;2024-02-16T06:19:28;14.50;99.90
21037;DHT22;10677;50.942;4.028;2024-02-16T06:21:54;14.50;99.90
21037;DHT22;10677;50.942;4.028;2024-02-16T06:24:23;14.50;99.90
21037;DHT22;10677;50.942;4.028;2024-02-16T06:26:50;14.50;99.90
21037;DHT22;10677;50.942;4.028;2024-02-16T06:29:18;14.60;99.90
21037;DHT22;10677;50.942;4.028;2024-02-16T06:31:47;14.60;99.90
21037;DHT22;10677;50.942;4.028;2024-02-16T06:34:14;14.70;99.90
21037;DHT22;10677;50.942;4.028;2024-02-16T06:36:40;14.60;99.90
21037;DHT22;10677;50.942;4.028;2024-02-16T06:39:06;14.60;99.90
21037;DHT22;10677;50.942;4.028;2024-02-16T06:41:31;14.70;99.90
21037;DHT22;10677;50.942;4.028;2024-02-16T06:43:57;14.70;99.90
21037;DHT22;10677;50.942;4.028;2024-02-16T06:46:22;14.70;99.90
21037;DHT22;10677;50.942;4.028;2024-02-16T06:48:50;14.70;99.90
21037;DHT22;10677;50.942;4.028;2024-02-16T06:51:15;14.70;99.90
21037;DHT22;10677;50.942;4.028;2024-02-16T06:53:41;14.70;99.90
21037;DHT22;10677;50.942;4.028;2024-02-16T06:56:07;14.70;99.90
21037;DHT22;10677;50.942;4.028;2024-02-16T06:58:33;14.70;99.90
21037;DHT22;10677;50.942;4.028;2024-02-16T07:01:00;14.80;99.90
21037;DHT22;10677;50.942;4.028;2024-02-16T07:03:28;14.70;99.90
21037;DHT22;10677;50.942;4.028;2024-02-16T07:05:54;14.70;99.90
21037;DHT22;10677;50.942;4.028;2024-02-16T07:08:20;14.70;99.90
21037;DHT22;10677;50.942;4.028;2024-02-16T07:10:46;14.70;99.90
21037;DHT22;10677;50.942;4.028;2024-02-16T07:13:13;14.70;99.90
21037;DHT22;10677;50.942;4.028;2024-02-16T07:15:38;14.60;99.90
21037;DHT22;10677;50.942;4.028;2024-02-16T07:18:05;14.60;99.90
21037;DHT22;10677;50.942;4.028;2024-02-16T07:20:31;14.50;99.90
21037;DHT22;10677;50.942;4.028;2024-02-16T07:22:57;14.50;99.90
21037;DHT22;10677;50.942;4.028;2024-02-16T07:25:22;14.50;99.90
21037;DHT22;10677;50.942;4.028;2024-02-16T07:27:48;14.40;99.90
21037;DHT22;10677;50.942;4.028;2024-02-16T07:30:14;14.40;99.90
21037;DHT22;10677;50.942;4.028;2024-02-16T07:32:39;14.40;99.90
21037;DHT22;10677;50.942;4.028;2024-02-16T07:35:05;14.40;99.90
21037;DHT22;10677;50.942;4.028;2024-02-16T07:37:31;14.40;99.90
21037;DHT22;10677;50.942;4.028;2024-02-16T07:39:57;14.40;99.90
21037;DHT22;10677;50.942;4.028;2024-02-16T07:42:23;14.50;99.90
21037;DHT22;10677;50.942;4.028;2024-02-16T07:44:49;14.60;99.90
21037;DHT22;10677;50.942;4.028;2024-02-16T07:47:16;14.60;99.90
21037;DHT22;10677;50.942;4.028;2024-02-16T07:49:41;14.60;99.90
21037;DHT22;10677;50.942;4.028;2024-02-16T07:52:07;14.60;99.90
21037;DHT22;10677;50.942;4.028;2024-02-16T07:54:34;14.60;99.90
21037;DHT22;10677;50.942;4.028;2024-02-16T07:57:00;14.60;99.90
21037;DHT22;10677;50.942;4.028;2024-02-16T07:59:25;14.60;99.90
21037;DHT22;10677;50.942;4.028;2024-02-16T08:01:51;14.70;99.90
21037;DHT22;10677;50.942;4.028;2024-02-16T08:04:17;14.70;99.90
21037;DHT22;10677;50.942;4.028;2024-02-16T08:06:42;14.70;99.90
21037;DHT22;10677;50.942;4.028;2024-02-16T08:09:08;14.70;99.90
21037;DHT22;10677;50.942;4.028;2024-02-16T08:11:34;14.60;99.90
21037;DHT22;10677;50.942;4.028;2024-02-16T08:13:59;14.70;99.90
21037;DHT22;10677;50.942;4.028;2024-02-16T08:16:28;14.70;99.90
21037;DHT22;10677;50.942;4.028;2024-02-16T08:18:54;14.70;99.90
21037;DHT22;10677;50.942;4.028;2024-02-16T08:21:20;14.80;99.90
21037;DHT22;10677;50.942;4.028;2024-02-16T08:23:46;14.80;99.90
21037;DHT22;10677;50.942;4.028;2024-02-16T08:26:12;14.80;99.90
21037;DHT22;10677;50.942;4.028;2024-02-16T08:28:38;14.80;99.90
21037;DHT22;10677;50.942;4.028;2024-02-16T08:31:05;14.80;99.90
21037;DHT22;10677;50.942;4.028;2024-02-16T08:33:32;14.80;99.90
21037;DHT22;10677;50.942;4.028;2024-02-16T08:35:58;14.80;99.90
21037;DHT22;10677;50.942;4.028;2024-02-16T08:38:24;14.80;99.90
21037;DHT22;10677;50.942;4.028;2024-02-16T08:40:49;14.70;99.90
21037;DHT22;10677;50.942;4.028;2024-02-16T08:43:17;14.70;99.90
21037;DHT22;10677;50.942;4.028;2024-02-16T08:45:43;14.80;99.90
21037;DHT22;10677;50.942;4.028;2024-02-16T08:48:08;14.80;99.90
21037;DHT22;10677;50.942;4.028;2024-02-16T08:50:34;14.90;99.90
21037;DHT22;10677;50.942;4.028;2024-02-16T08:53:00;14.90;99.90
21037;DHT22;10677;50.942;4.028;2024-02-16T08:55:26;14.90;99.90
21037;DHT22;10677;50.942;4.028;2024-02-16T08:57:52;15.00;99.90
21037;DHT22;10677;50.942;4.028;2024-02-16T09:00:18;15.00;99.90
21037;DHT22;10677;50.942;4.028;2024-02-16T09:02:43;15.00;99.90
21037;DHT22;10677;50.942;4.028;2024-02-16T09:05:10;15.00;99.90
21037;DHT22;10677;50.942;4.028;2024-02-16T09:07:36;15.10;99.90
21037;DHT22;10677;50.942;4.028;2024-02-16T09:10:02;15.10;99.90
21037;DHT22;10677;50.942;4.028;2024-02-16T09:12:29;15.10;99.90
21037;DHT22;10677;50.942;4.028;2024-02-16T09:14:55;15.20;99.90
21037;DHT22;10677;50.942;4.028;2024-02-16T09:17:21;15.20;99.90
21037;DHT22;10677;50.942;4.028;2024-02-16T09:19:46;15.30;99.90
21037;DHT22;10677;50.942;4.028;2024-02-16T09:22:12;15.20;99.90
21037;DHT22;10677;50.942;4.028;2024-02-16T09:24:37;15.20;99.90
21037;DHT22;10677;50.942;4.028;2024-02-16T09:27:03;15.20;99.90
21037;DHT22;10677;50.942;4.028;2024-02-16T09:29:30;15.20;99.90
21037;DHT22;10677;50.942;4.028;2024-02-16T09:31:56;15.20;99.90
21037;DHT22;10677;50.942;4.028;2024-02-16T09:34:21;15.10;99.90
21037;DHT22;10677;50.942;4.028;2024-02-16T09:36:47;15.20;99.90
21037;DHT22;10677;50.942;4.028;2024-02-16T09:39:12;15.20;99.90
21037;DHT22;10677;50.942;4.028;2024-02-16T09:41:42;15.10;99.90
21037;DHT22;10677;50.942;4.028;2024-02-16T09:44:08;15.10;99.90
21037;DHT22;10677;50.942;4.028;2024-02-16T09:46:35;15.10;99.90
21037;DHT22;10677;50.942;4.028;2024-02-16T09:49:02;15.10;99.90
21037;DHT22;10677;50.942;4.028;2024-02-16T09:51:29;15.10;99.90
21037;DHT22;10677;50.942;4.028;2024-02-16T09:53:55;15.00;99.90
21037;DHT22;10677;50.942;4.028;2024-02-16T09:56:21;14.80;99.90
21037;DHT22;10677;50.942;4.028;2024-02-16T09:58:47;14.80;99.90
21037;DHT22;10677;50.942;4.028;2024-02-16T10:01:20;14.70;99.90
21037;DHT22;10677;50.942;4.028;2024-02-16T10:03:46;14.60;99.90
21037;DHT22;10677;50.942;4.028;2024-02-16T10:06:13;14.50;99.90
21037;DHT22;10677;50.942;4.028;2024-02-16T10:09:07;14.50;99.90
21037;DHT22;10677;50.942;4.028;2024-02-16T10:11:32;14.60;99.90
21037;DHT22;10677;50.942;4.028;2024-02-16T10:14:00;14.60;99.90
21037;DHT22;10677;50.942;4.028;2024-02-16T10:16:26;14.60;99.90
21037;DHT22;10677;50.942;4.028;2024-02-16T10:19:17;14.70;99.90
21037;DHT22;10677;50.942;4.028;2024-02-16T10:21:43;14.70;99.90
21037;DHT22;10677;50.942;4.028;2024-02-16T10:24:11;14.70;99.90
21037;DHT22;10677;50.942;4.028;2024-02-16T10:26:37;14.70;99.90
21037;DHT22;10677;50.942;4.028;2024-02-16T10:29:05;14.60;99.90
21037;DHT22;10677;50.942;4.028;2024-02-16T10:31:32;14.60;99.90
21037;DHT22;10677;50.942;4.028;2024-02-16T10:34:00;14.60;99.90
21037;DHT22;10677;50.942;4.028;2024-02-16T10:36:35;14.60;99.90
21037;DHT22;10677;50.942;4.028;2024-02-16T10:39:03;14.60;99.90
21037;DHT22;10677;50.942;4.028;2024-02-16T10:41:37;14.50;99.90
21037;DHT22;10677;50.942;4.028;2024-02-16T10:44:03;14.40;99.90
21037;DHT22;10677;50.942;4.028;2024-02-16T10:46:30;14.30;99.90
21037;DHT22;10677;50.942;4.028;2024-02-16T10:48:56;14.20;99.90
21037;DHT22;10677;50.942;4.028;2024-02-16T10:51:31;14.20;99.90
21037;DHT22;10677;50.942;4.028;2024-02-16T10:54:00;14.20;99.90
21037;DHT22;10677;50.942;4.028;2024-02-16T10:56:28;14.20;99.90
21037;DHT22;10677;50.942;4.028;2024-02-16T10:59:03;14.20;99.90
21037;DHT22;10677;50.942;4.028;2024-02-16T11:01:32;14.20;99.90
21037;DHT22;10677;50.942;4.028;2024-02-16T11:04:03;14.20;99.90
21037;DHT22;10677;50.942;4.028;2024-02-16T11:06:29;14.20;99.90
21037;DHT22;10677;50.942;4.028;2024-02-16T11:09:01;14.00;99.90
21037;DHT22;10677;50.942;4.028;2024-02-16T11:11:29;14.00;99.90
21037;DHT22;10677;50.942;4.028;2024-02-16T11:13:55;14.00;99.90
21037;DHT22;10677;50.942;4.028;2024-02-16T11:16:22;14.00;99.90
21037;DHT22;10677;50.942;4.028;2024-02-16T11:18:47;14.10;99.90
21037;DHT22;10677;50.942;4.028;2024-02-16T11:21:17;14.00;99.90
21037;DHT22;10677;50.942;4.028;2024-02-16T11:23:44;13.90;99.90
21037;DHT22;10677;50.942;4.028;2024-02-16T11:26:11;13.80;99.90
21037;DHT22;10677;50.942;4.028;2024-02-16T11:28:41;13.90;99.90
21037;DHT22;10677;50.942;4.028;2024-02-16T11:31:07;13.50;99.90
21037;DHT22;10677;50.942;4.028;2024-02-16T11:33:34;13.20;99.90
21037;DHT22;10677;50.942;4.028;2024-02-16T11:36:04;13.30;99.90
21037;DHT22;10677;50.942;4.028;2024-02-16T11:38:31;13.30;99.90
21037;DHT22;10677;50.942;4.028;2024-02-16T11:41:05;13.50;99.90
21037;DHT22;10677;50.942;4.028;2024-02-16T11:43:31;13.60;99.90
21037;DHT22;10677;50.942;4.028;2024-02-16T11:46:14;13.70;99.90
21037;DHT22;10677;50.942;4.028;2024-02-16T11:48:40;13.60;99.90
21037;DHT22;10677;50.942;4.028;2024-02-16T11:51:06;13.60;99.90
21037;DHT22;10677;50.942;4.028;2024-02-16T11:53:32;13.50;99.90
21037;DHT22;10677;50.942;4.028;2024-02-16T11:55:58;13.30;99.90
21037;DHT22;10677;50.942;4.028;2024-02-16T11:58:26;13.20;99.90
21037;DHT22;10677;50.942;4.028;2024-02-16T12:00:52;13.00;99.90
21037;DHT22;10677;50.942;4.028;2024-02-16T12:03:22;12.90;99.90
21037;DHT22;10677;50.942;4.028;2024-02-16T12:05:57;12.80;99.90
21037;DHT22;10677;50.942;4.028;2024-02-16T12:08:31;12.70;99.90
21037;DHT22;10677;50.942;4.028;2024-02-16T12:11:00;12.60;99.90
21037;DHT22;10677;50.942;4.028;2024-02-16T12:13:26;12.70;99.90
21037;DHT22;10677;50.942;4.028;2024-02-16T12:15:52;12.50;99.90
21037;DHT22;10677;50.942;4.028;2024-02-16T12:18:24;12.50;99.90
21037;DHT22;10677;50.942;4.028;2024-02-16T12:21:02;12.50;99.90
21037;DHT22;10677;50.942;4.028;2024-02-16T12:23:29;12.50;99.90
21037;DHT22;10677;50.942;4.028;2024-02-16T12:26:01;12.40;99.90
21037;DHT22;10677;50.942;4.028;2024-02-16T12:28:28;12.40;99.90
21037;DHT22;10677;50.942;4.028;2024-02-16T12:30:55;12.60;99.90
21037;DHT22;10677;50.942;4.028;2024-02-16T12:33:24;12.70;99.90
21037;DHT22;10677;50.942;4.028;2024-02-16T12:35:50;12.70;99.90
21037;DHT22;10677;50.942;4.028;2024-02-16T12:38:16;12.80;99.90
21037;DHT22;10677;50.942;4.028;2024-02-16T12:40:51;12.80;99.90
21037;DHT22;10677;50.942;4.028;2024-02-16T12:43:16;12.80;99.90
21037;DHT22;10677;50.942;4.028;2024-02-16T12:45:44;12.80;99.90
21037;DHT22;10677;50.942;4.028;2024-02-16T12:48:09;12.70;99.90
21037;DHT22;10677;50.942;4.028;2024-02-16T12:50:36;12.80;99.90
21037;DHT22;10677;50.942;4.028;2024-02-16T12:53:03;12.90;99.90
21037;DHT22;10677;50.942;4.028;2024-02-16T12:55:28;12.90;99.90
21037;DHT22;10677;50.942;4.028;2024-02-16T12:57:55;13.00;99.90
21037;DHT22;10677;50.942;4.028;2024-02-16T13:00:22;13.20;99.90
21037;DHT22;10677;50.942;4.028;2024-02-16T13:02:47;13.30;99.90
21037;DHT22;10677;50.942;4.028;2024-02-16T13:05:13;13.20;99.90
21037;DHT22;10677;50.942;4.028;2024-02-16T13:07:39;13.40;99.90
21037;DHT22;10677;50.942;4.028;2024-02-16T13:10:07;13.50;99.90
21037;DHT22;10677;50.942;4.028;2024-02-16T13:12:33;13.50;99.90
21037;DHT22;10677;50.942;4.028;2024-02-16T13:14:59;13.60;99.90
21037;DHT22;10677;50.942;4.028;2024-02-16T13:17:24;13.80;99.90
21037;DHT22;10677;50.942;4.028;2024-02-16T13:19:52;13.90;99.90
21037;DHT22;10677;50.942;4.028;2024-02-16T13:22:18;13.90;99.90
21037;DHT22;10677;50.942;4.028;2024-02-16T13:24:43;14.00;99.90
21037;DHT22;10677;50.942;4.028;2024-02-16T13:27:09;13.90;99.90
21037;DHT22;10677;50.942;4.028;2024-02-16T13:29:35;14.00;99.90
21037;DHT22;10677;50.942;4.028;2024-02-16T13:32:01;14.20;99.90
21037;DHT22;10677;50.942;4.028;2024-02-16T13:34:26;14.10;99.90
21037;DHT22;10677;50.942;4.028;2024-02-16T13:36:53;14.10;99.90
21037;DHT22;10677;50.942;4.028;2024-02-16T13:39:18;13.90;99.90
21037;DHT22;10677;50.942;4.028;2024-02-16T13:41:45;14.00;99.90
21037;DHT22;10677;50.942;4.028;2024-02-16T13:44:12;14.20;99.90
21037;DHT22;10677;50.942;4.028;2024-02-16T13:46:38;14.20;99.90
21037;DHT22;10677;50.942;4.028;2024-02-16T13:49:04;14.10;99.90
21037;DHT22;10677;50.942;4.028;2024-02-16T13:51:29;14.20;99.90
21037;DHT22;10677;50.942;4.028;2024-02-16T13:53:55;14.10;99.90
21037;DHT22;10677;50.942;4.028;2024-02-16T13:56:21;14.20;99.90
21037;DHT22;10677;50.942;4.028;2024-02-16T13:58:46;14.20;99.90
21037;DHT22;10677;50.942;4.028;2024-02-16T14:01:13;14.10;99.90
21037;DHT22;10677;50.942;4.028;2024-02-16T14:03:39;14.30;99.90
21037;DHT22;10677;50.942;4.028;2024-02-16T14:06:06;14.10;99.90
21037;DHT22;10677;50.942;4.028;2024-02-16T14:08:33;14.30;99.90
21037;DHT22;10677;50.942;4.028;2024-02-16T14:10:58;14.30;99.90
21037;DHT22;10677;50.942;4.028;2024-02-16T14:13:24;14.20;99.90
21037;DHT22;10677;50.942;4.028;2024-02-16T14:15:50;14.20;99.90
21037;DHT22;10677;50.942;4.028;2024-02-16T14:18:16;14.00;99.90
21037;DHT22;10677;50.942;4.028;2024-02-16T14:20:42;13.80;99.90
21037;DHT22;10677;50.942;4.028;2024-02-16T14:23:07;13.90;99.90
21037;DHT22;10677;50.942;4.028;2024-02-16T14:25:35;13.90;99.90
21037;DHT22;10677;50.942;4.028;2024-02-16T14:28:03;14.10;99.90
21037;DHT22;10677;50.942;4.028;2024-02-16T14:30:28;14.10;99.90
21037;DHT22;10677;50.942;4.028;2024-02-16T14:32:54;14.20;99.90
21037;DHT22;10677;50.942;4.028;2024-02-16T14:35:20;14.40;99.90
21037;DHT22;10677;50.942;4.028;2024-02-16T14:37:47;14.50;99.90
21037;DHT22;10677;50.942;4.028;2024-02-16T14:40:13;14.40;99.90
21037;DHT22;10677;50.942;4.028;2024-02-16T14:42:38;14.30;99.90
21037;DHT22;10677;50.942;4.028;2024-02-16T14:45:05;14.10;99.90
21037;DHT22;10677;50.942;4.028;2024-02-16T14:47:37;14.10;99.90
21037;DHT22;10677;50.942;4.028;2024-02-16T14:50:04;14.00;99.90
21037;DHT22;10677;50.942;4.028;2024-02-16T14:52:33;14.10;99.90
21037;DHT22;10677;50.942;4.028;2024-02-16T14:54:59;14.20;99.90
21037;DHT22;10677;50.942;4.028;2024-02-16T14:57:25;14.00;99.90
21037;DHT22;10677;50.942;4.028;2024-02-16T14:59:51;14.00;99.90
21037;DHT22;10677;50.942;4.028;2024-02-16T15:02:21;14.10;99.90
21037;DHT22;10677;50.942;4.028;2024-02-16T15:04:48;14.00;99.90
21037;DHT22;10677;50.942;4.028;2024-02-16T15:07:13;14.30;99.90
21037;DHT22;10677;50.942;4.028;2024-02-16T15:09:39;14.30;99.90
21037;DHT22;10677;50.942;4.028;2024-02-16T15:12:05;14.30;99.90
21037;DHT22;10677;50.942;4.028;2024-02-16T15:14:32;14.20;99.90
21037;DHT22;10677;50.942;4.028;2024-02-16T15:16:59;14.20;99.90
21037;DHT22;10677;50.942;4.028;2024-02-16T15:19:25;14.40;99.90
21037;DHT22;10677;50.942;4.028;2024-02-16T15:21:50;14.60;99.90
21037;DHT22;10677;50.942;4.028;2024-02-16T15:24:16;14.40;99.90
21037;DHT22;10677;50.942;4.028;2024-02-16T15:26:41;14.20;99.90